Time;durP1;ratioP1;P1;durP2;ratioP2;P2;SDS_P1;SDS_P2;PMS_P1;PMS_P2;Temp;Humidity;BMP_temperature;BMP_pressure;BME280_temperature;BME280_humidity;BME280_pressure;Samples;Min_cycle;Max_cycle;Signal;HPM_P1;HPM_P2
2023/10/30 00:00:13;;;;;;;10.80;3.00;;;;;;;;;;5034828;28;20590;-68
2023/10/30 00:02:39;;;;;;;8.23;2.50;;;;;;;;;;5034570;28;20182;-69
2023/10/30 00:05:06;;;;;;;11.00;2.90;;;;;;;;;;5050278;28;20211;-69
2023/10/30 00:07:32;;;;;;;11.47;2.73;;;;;;;;;;5034848;28;20186;-67
2023/10/30 00:09:58;;;;;;;9.90;2.90;;;;;;;;;;5050131;28;20552;-67
2023/10/30 00:12:24;;;;;;;11.77;3.13;;;;;;;;;;5050132;28;20672;-68
2023/10/30 00:14:50;;;;;;;14.13;3.00;;;;;;;;;;5034649;28;20202;-68
2023/10/30 00:17:16;;;;;;;11.37;2.60;;;;;;;;;;5049778;28;20234;-68
2023/10/30 00:19:43;;;;;;;10.90;2.43;;;;;;;;;;5034663;28;20179;-68
2023/10/30 00:22:11;;;;;;;10.90;2.90;;;;;;;;;;5049742;28;20218;-68
2023/10/30 00:24:37;;;;;;;9.17;2.70;;;;;;;;;;5034309;28;20211;-68
2023/10/30 00:27:03;;;;;;;12.37;3.00;;;;;;;;;;5049794;28;20557;-67
2023/10/30 00:29:29;;;;;;;11.20;2.30;;;;;;;;;;5049682;28;20574;-69
2023/10/30 00:31:55;;;;;;;11.77;2.90;;;;;;;;;;5034405;28;20190;-67
2023/10/30 00:34:21;;;;;;;12.27;3.17;;;;;;;;;;5034282;28;20282;-68
2023/10/30 00:36:47;;;;;;;10.47;2.70;;;;;;;;;;5034223;28;20199;-68
2023/10/30 00:39:13;;;;;;;10.60;2.50;;;;;;;;;;5034441;28;20638;-68
2023/10/30 00:41:39;;;;;;;16.53;3.30;;;;;;;;;;5034257;28;20172;-68
2023/10/30 00:44:05;;;;;;;9.30;2.93;;;;;;;;;;5049638;28;20593;-68
2023/10/30 00:46:31;;;;;;;14.50;3.40;;;;;;;;;;5049355;28;20202;-68
2023/10/30 00:48:57;;;;;;;11.00;3.10;;;;;;;;;;5049415;28;20183;-68
2023/10/30 00:51:23;;;;;;;13.40;2.63;;;;;;;;;;5034238;28;20241;-68
2023/10/30 00:53:49;;;;;;;14.50;2.93;;;;;;;;;;5034320;28;20681;-69
2023/10/30 00:56:15;;;;;;;12.33;3.37;;;;;;;;;;5049138;28;20206;-70
2023/10/30 00:58:41;;;;;;;12.83;3.60;;;;;;;;;;5049373;28;20193;-67
2023/10/30 01:01:09;;;;;;;12.83;3.13;;;;;;;;;;5033441;28;20179;-67
2023/10/30 01:03:37;;;;;;;9.67;2.53;;;;;;;;;;5033300;28;20171;-67
2023/10/30 01:06:03;;;;;;;10.17;2.93;;;;;;;;;;5033153;28;20294;-69
2023/10/30 01:08:29;;;;;;;10.00;2.80;;;;;;;;;;5048600;28;20609;-67
2023/10/30 01:10:58;;;;;;;9.87;3.00;;;;;;;;;;5032408;28;20194;-67
2023/10/30 01:13:24;;;;;;;10.67;2.77;;;;;;;;;;5033109;28;20172;-67
2023/10/30 01:15:57;;;;;;;8.83;2.73;;;;;;;;;;5048251;28;20214;-67
2023/10/30 01:18:23;;;;;;;11.27;2.80;;;;;;;;;;5048497;28;20286;-67
2023/10/30 01:20:49;;;;;;;12.90;2.90;;;;;;;;;;5048846;28;20175;-67
2023/10/30 01:23:15;;;;;;;11.33;2.70;;;;;;;;;;5033267;28;20210;-67
2023/10/30 01:25:41;;;;;;;10.73;3.23;;;;;;;;;;5032863;28;20226;-67
2023/10/30 01:28:07;;;;;;;9.77;3.33;;;;;;;;;;5032989;28;20191;-67
2023/10/30 01:30:33;;;;;;;9.87;2.90;;;;;;;;;;5048112;28;20334;-67
2023/10/30 01:32:59;;;;;;;10.27;2.90;;;;;;;;;;5032930;28;20179;-67
2023/10/30 01:35:26;;;;;;;11.53;2.70;;;;;;;;;;5032934;28;20206;-67
2023/10/30 01:37:52;;;;;;;13.90;3.10;;;;;;;;;;5032836;28;20198;-67
2023/10/30 01:40:18;;;;;;;10.33;3.03;;;;;;;;;;5048112;28;20249;-67
2023/10/30 01:42:44;;;;;;;10.47;2.80;;;;;;;;;;5032765;28;20179;-67
2023/10/30 01:45:10;;;;;;;9.47;3.00;;;;;;;;;;5033317;28;20191;-67
2023/10/30 01:47:37;;;;;;;7.40;2.50;;;;;;;;;;5032712;28;20207;-67
2023/10/30 01:50:04;;;;;;;11.70;2.23;;;;;;;;;;5047951;28;20179;-66
2023/10/30 01:52:31;;;;;;;13.07;3.00;;;;;;;;;;5032575;28;20182;-66
2023/10/30 01:54:57;;;;;;;12.93;2.73;;;;;;;;;;5047807;28;20202;-67
2023/10/30 01:57:24;;;;;;;14.50;2.67;;;;;;;;;;5033005;28;20207;-67
2023/10/30 01:59:51;;;;;;;11.57;3.07;;;;;;;;;;5032985;28;20258;-66
2023/10/30 02:02:23;;;;;;;7.40;2.93;;;;;;;;;;5032664;28;20233;-67
2023/10/30 02:04:50;;;;;;;11.13;2.67;;;;;;;;;;5032874;28;20195;-67
2023/10/30 02:07:16;;;;;;;14.20;3.57;;;;;;;;;;5032677;28;20202;-67
2023/10/30 02:09:42;;;;;;;9.97;2.87;;;;;;;;;;5032916;28;20215;-67
2023/10/30 02:12:08;;;;;;;11.90;3.27;;;;;;;;;;5047918;28;20190;-66
2023/10/30 02:14:34;;;;;;;11.30;3.10;;;;;;;;;;5032616;28;20194;-68
2023/10/30 02:17:00;;;;;;;15.37;3.73;;;;;;;;;;5032254;28;20209;-67
2023/10/30 02:19:32;;;;;;;12.90;2.60;;;;;;;;;;5032505;28;20171;-68
2023/10/30 02:21:58;;;;;;;15.10;3.50;;;;;;;;;;5035015;28;20179;-67
2023/10/30 02:24:24;;;;;;;10.13;3.33;;;;;;;;;;5036397;28;20715;-67
2023/10/30 02:26:50;;;;;;;8.73;2.60;;;;;;;;;;5036390;28;20628;-67
2023/10/30 02:29:17;;;;;;;10.63;3.07;;;;;;;;;;5036059;28;20186;-67
2023/10/30 02:31:43;;;;;;;15.53;3.20;;;;;;;;;;5036115;28;20237;-67
2023/10/30 02:34:09;;;;;;;15.20;3.43;;;;;;;;;;5036309;28;20203;-67
2023/10/30 02:36:35;;;;;;;9.47;2.50;;;;;;;;;;5053333;22;20218;-73
2023/10/30 02:39:04;;;;;;;18.90;3.53;;;;;;;;;;5036191;28;20175;-72
2023/10/30 02:41:31;;;;;;;8.97;2.60;;;;;;;;;;5036082;28;20183;-72
2023/10/30 02:43:58;;;;;;;12.77;2.93;;;;;;;;;;5037323;28;20233;-72
2023/10/30 02:46:24;;;;;;;9.17;2.60;;;;;;;;;;5035943;28;20665;-72
2023/10/30 02:48:50;;;;;;;13.43;3.03;;;;;;;;;;5052710;28;20194;-72
2023/10/30 02:51:16;;;;;;;16.97;3.30;;;;;;;;;;5037317;28;20551;-72
2023/10/30 02:53:42;;;;;;;14.00;3.10;;;;;;;;;;5052836;28;20318;-72
2023/10/30 02:56:08;;;;;;;12.10;3.00;;;;;;;;;;5037137;28;20243;-72
2023/10/30 02:58:34;;;;;;;14.40;3.30;;;;;;;;;;5052459;28;20194;-72
2023/10/30 03:01:01;;;;;;;10.90;2.97;;;;;;;;;;5043564;28;20171;-71
2023/10/30 03:03:27;;;;;;;14.70;3.07;;;;;;;;;;5065724;28;20179;-72
2023/10/30 03:05:53;;;;;;;12.57;3.30;;;;;;;;;;5059738;28;20179;-72
2023/10/30 03:08:19;;;;;;;11.33;2.57;;;;;;;;;;5055246;28;20206;-72
2023/10/30 03:10:47;;;;;;;10.33;2.57;;;;;;;;;;5053037;28;20558;-72
2023/10/30 03:13:13;;;;;;;15.80;3.30;;;;;;;;;;5053027;28;20653;-72
2023/10/30 03:15:40;;;;;;;11.40;2.83;;;;;;;;;;5039378;28;20246;-72
2023/10/30 03:18:06;;;;;;;14.70;2.77;;;;;;;;;;5053449;28;20226;-71
2023/10/30 03:20:32;;;;;;;9.60;3.43;;;;;;;;;;5053052;28;20183;-71
2023/10/30 03:22:58;;;;;;;11.57;3.20;;;;;;;;;;5053203;28;20611;-70
2023/10/30 03:25:24;;;;;;;12.97;3.30;;;;;;;;;;5052051;28;20228;-71
2023/10/30 03:27:50;;;;;;;13.30;2.87;;;;;;;;;;5051617;28;20206;-70
2023/10/30 03:30:16;;;;;;;11.80;3.67;;;;;;;;;;5036395;28;20185;-72
2023/10/30 03:32:42;;;;;;;11.07;2.83;;;;;;;;;;5035448;28;20175;-72
2023/10/30 03:35:08;;;;;;;11.50;3.00;;;;;;;;;;5051438;28;20187;-72
2023/10/30 03:37:34;;;;;;;8.97;2.73;;;;;;;;;;5035809;28;20218;-72
2023/10/30 03:40:00;;;;;;;9.90;2.70;;;;;;;;;;5035955;28;20568;-70
2023/10/30 03:42:26;;;;;;;9.50;3.20;;;;;;;;;;5036337;28;20501;-71
2023/10/30 03:44:52;;;;;;;12.87;3.27;;;;;;;;;;5051113;28;20179;-70
2023/10/30 03:47:19;;;;;;;12.80;2.80;;;;;;;;;;5051319;28;20314;-71
2023/10/30 03:49:46;;;;;;;10.60;2.70;;;;;;;;;;5051038;28;20180;-72
2023/10/30 03:52:12;;;;;;;8.10;2.60;;;;;;;;;;5035651;28;20262;-72
2023/10/30 03:54:38;;;;;;;12.60;3.10;;;;;;;;;;5050828;28;20222;-72
2023/10/30 03:57:04;;;;;;;10.90;3.03;;;;;;;;;;5035320;28;20225;-72
2023/10/30 03:59:30;;;;;;;10.73;3.07;;;;;;;;;;5035290;28;20205;-72
2023/10/30 04:01:56;;;;;;;11.30;3.20;;;;;;;;;;5035519;28;20175;-72
2023/10/30 04:04:22;;;;;;;15.77;3.00;;;;;;;;;;5050948;28;20236;-71
2023/10/30 04:06:48;;;;;;;7.70;2.60;;;;;;;;;;5035328;28;20210;-72
2023/10/30 04:09:14;;;;;;;8.73;2.87;;;;;;;;;;5035692;28;20248;-72
2023/10/30 04:11:40;;;;;;;9.30;2.40;;;;;;;;;;5050837;28;20179;-72
2023/10/30 04:14:06;;;;;;;12.77;3.03;;;;;;;;;;5050755;28;20183;-72
2023/10/30 04:16:32;;;;;;;13.70;3.50;;;;;;;;;;5050479;28;20206;-72
2023/10/30 04:18:58;;;;;;;8.93;2.50;;;;;;;;;;5035523;28;20259;-73
2023/10/30 04:21:24;;;;;;;9.43;2.77;;;;;;;;;;5035534;28;20179;-73
2023/10/30 04:23:50;;;;;;;12.93;2.80;;;;;;;;;;5050411;28;20175;-72
2023/10/30 04:26:17;;;;;;;8.97;3.20;;;;;;;;;;5035114;28;20183;-72
2023/10/30 04:28:43;;;;;;;8.77;3.00;;;;;;;;;;5035198;28;20664;-73
2023/10/30 04:31:09;;;;;;;10.07;3.00;;;;;;;;;;5035152;28;20175;-73
2023/10/30 04:33:35;;;;;;;8.20;2.70;;;;;;;;;;5050385;28;20213;-73
2023/10/30 04:36:05;;;;;;;14.43;3.10;;;;;;;;;;5050323;28;20210;-73
2023/10/30 04:38:31;;;;;;;8.20;3.27;;;;;;;;;;5034760;28;20684;-73
2023/10/30 04:40:58;;;;;;;12.53;3.63;;;;;;;;;;5050303;28;20203;-73
2023/10/30 04:43:24;;;;;;;10.40;3.60;;;;;;;;;;5034947;28;20202;-73
2023/10/30 04:45:49;;;;;;;10.03;3.93;;;;;;;;;;5035576;28;20179;-72
2023/10/30 04:48:15;;;;;;;15.07;4.50;;;;;;;;;;5035088;28;20708;-73
2023/10/30 04:50:41;;;;;;;19.47;5.60;;;;;;;;;;5050225;28;20672;-72
2023/10/30 04:53:07;;;;;;;16.77;5.20;;;;;;;;;;5034711;28;20183;-73
2023/10/30 04:55:34;;;;;;;14.83;5.30;;;;;;;;;;5034782;28;20179;-73
2023/10/30 04:58:00;;;;;;;19.10;5.83;;;;;;;;;;5034709;28;20249;-73
2023/10/30 05:00:26;;;;;;;20.23;6.53;;;;;;;;;;5034557;28;20553;-73
2023/10/30 05:02:52;;;;;;;15.63;5.73;;;;;;;;;;5034439;28;20175;-73
2023/10/30 05:05:18;;;;;;;16.00;5.67;;;;;;;;;;5049994;28;20203;-73
2023/10/30 05:07:45;;;;;;;20.40;7.73;;;;;;;;;;5049863;28;20234;-73
2023/10/30 05:10:12;;;;;;;15.60;6.47;;;;;;;;;;5050130;28;20184;-73
2023/10/30 05:12:38;;;;;;;18.43;5.83;;;;;;;;;;5049839;28;20183;-73
2023/10/30 05:15:08;;;;;;;17.43;6.13;;;;;;;;;;5049717;28;20212;-73
2023/10/30 05:17:37;;;;;;;19.80;6.13;;;;;;;;;;5049542;28;20246;-73
2023/10/30 05:20:03;;;;;;;18.20;4.70;;;;;;;;;;5033919;28;20171;-73
2023/10/30 05:22:29;;;;;;;13.93;4.73;;;;;;;;;;5033836;28;20233;-72
2023/10/30 05:24:55;;;;;;;11.30;3.83;;;;;;;;;;5033970;28;20174;-72
2023/10/30 05:27:23;;;;;;;20.20;4.43;;;;;;;;;;5049713;28;20222;-72
2023/10/30 05:29:49;;;;;;;8.83;3.03;;;;;;;;;;5036426;28;20175;-73
2023/10/30 05:32:15;;;;;;;11.30;3.33;;;;;;;;;;5051785;28;20606;-72
2023/10/30 05:34:40;;;;;;;10.30;3.53;;;;;;;;;;5034776;28;20183;-73
2023/10/30 05:37:09;;;;;;;12.77;3.50;;;;;;;;;;5034244;28;20218;-72
2023/10/30 05:39:34;;;;;;;12.33;4.00;;;;;;;;;;5034307;28;20264;-72
2023/10/30 05:42:02;;;;;;;14.17;4.27;;;;;;;;;;5034152;28;20179;-72
2023/10/30 05:44:30;;;;;;;16.80;5.07;;;;;;;;;;5034079;28;20172;-73
2023/10/30 05:46:56;;;;;;;13.03;5.83;;;;;;;;;;5053059;28;20206;-73
2023/10/30 05:49:22;;;;;;;15.33;6.00;;;;;;;;;;5053062;28;20187;-73
2023/10/30 05:51:48;;;;;;;20.33;7.30;;;;;;;;;;5070215;28;20202;-72
2023/10/30 05:54:14;;;;;;;20.40;10.80;;;;;;;;;;5046059;28;20179;-73
2023/10/30 05:56:40;;;;;;;21.27;9.50;;;;;;;;;;5035058;28;20218;-73
2023/10/30 05:59:06;;;;;;;23.00;10.93;;;;;;;;;;5036368;28;20175;-73
2023/10/30 06:01:32;;;;;;;21.63;10.50;;;;;;;;;;5036208;28;20182;-73
2023/10/30 06:03:58;;;;;;;22.83;12.83;;;;;;;;;;5034758;28;20175;-73
2023/10/30 06:06:24;;;;;;;21.77;11.80;;;;;;;;;;5035254;28;20193;-72
2023/10/30 06:08:50;;;;;;;20.40;7.43;;;;;;;;;;5033688;28;20175;-72
2023/10/30 06:11:16;;;;;;;16.70;5.83;;;;;;;;;;5034845;28;20233;-72
2023/10/30 06:13:42;;;;;;;13.60;5.03;;;;;;;;;;5034901;28;20186;-72
2023/10/30 06:16:13;;;;;;;18.13;5.67;;;;;;;;;;5034466;28;20203;-72
2023/10/30 06:18:40;;;;;;;17.00;4.77;;;;;;;;;;5049717;28;20176;-72
2023/10/30 06:21:07;;;;;;;12.17;4.53;;;;;;;;;;5033811;28;20637;-72
2023/10/30 06:23:34;;;;;;;19.57;5.40;;;;;;;;;;5034055;28;20177;-72
2023/10/30 06:25:59;;;;;;;23.83;4.57;;;;;;;;;;5049258;28;20183;-72
2023/10/30 06:28:26;;;;;;;15.30;4.70;;;;;;;;;;5033807;28;20206;-73
2023/10/30 06:30:52;;;;;;;21.00;5.27;;;;;;;;;;5033814;28;20179;-73
2023/10/30 06:33:18;;;;;;;18.43;4.33;;;;;;;;;;5033840;28;20175;-74
2023/10/30 06:35:43;;;;;;;17.70;4.43;;;;;;;;;;5033602;28;20179;-73
2023/10/30 06:38:09;;;;;;;15.87;3.73;;;;;;;;;;5048754;28;20253;-73
2023/10/30 06:40:36;;;;;;;13.27;4.37;;;;;;;;;;5048921;28;20254;-71
2023/10/30 06:43:02;;;;;;;14.23;4.57;;;;;;;;;;5048919;28;20641;-73
2023/10/30 06:45:28;;;;;;;10.77;4.40;;;;;;;;;;5033293;28;20657;-73
2023/10/30 06:47:54;;;;;;;11.17;5.23;;;;;;;;;;5033620;28;20358;-74
2023/10/30 06:50:20;;;;;;;12.70;5.27;;;;;;;;;;5033561;28;20661;-72
2023/10/30 06:52:46;;;;;;;18.33;6.80;;;;;;;;;;5048324;28;20721;-73
2023/10/30 06:55:12;;;;;;;16.57;5.67;;;;;;;;;;5032804;28;20186;-73
2023/10/30 06:57:37;;;;;;;17.03;5.50;;;;;;;;;;5032923;28;20214;-73
2023/10/30 07:00:04;;;;;;;11.70;5.07;;;;;;;;;;5032845;28;20167;-73
2023/10/30 07:02:32;;;;;;;14.73;5.30;;;;;;;;;;5048442;28;20190;-73
2023/10/30 07:04:58;;;;;;;16.00;5.10;;;;;;;;;;5048274;28;20183;-73
2023/10/30 07:07:24;;;;;;;10.03;4.07;;;;;;;;;;5032819;28;20324;-72
2023/10/30 07:09:50;;;;;;;14.90;3.57;;;;;;;;;;5036329;28;20179;-73
2023/10/30 07:12:16;;;;;;;15.40;4.50;;;;;;;;;;5052048;28;20191;-72
2023/10/30 07:14:42;;;;;;;15.50;3.93;;;;;;;;;;5036698;28;20207;-72
2023/10/30 07:17:08;;;;;;;12.67;3.83;;;;;;;;;;5051987;28;20242;-72
2023/10/30 07:19:34;;;;;;;22.40;3.83;;;;;;;;;;5051708;28;20649;-73
2023/10/30 07:22:04;;;;;;;12.77;4.00;;;;;;;;;;5036123;28;20178;-74
2023/10/30 07:24:30;;;;;;;19.27;4.10;;;;;;;;;;5036362;28;20191;-72
2023/10/30 07:26:57;;;;;;;12.37;3.77;;;;;;;;;;5036284;28;20206;-72
2023/10/30 07:29:23;;;;;;;13.83;3.90;;;;;;;;;;5052528;28;20183;-72
2023/10/30 07:31:49;;;;;;;16.07;3.73;;;;;;;;;;5036404;28;20183;-72
2023/10/30 07:34:15;;;;;;;15.50;4.33;;;;;;;;;;5051389;28;20669;-72
2023/10/30 07:36:42;;;;;;;15.73;3.47;;;;;;;;;;5035553;28;20650;-72
2023/10/30 07:39:08;;;;;;;11.47;3.97;;;;;;;;;;5051135;28;20171;-73
2023/10/30 07:41:34;;;;;;;15.43;4.60;;;;;;;;;;5051147;28;20175;-73
2023/10/30 07:44:00;;;;;;;13.90;3.60;;;;;;;;;;5051827;28;20245;-72
2023/10/30 07:46:26;;;;;;;12.90;4.10;;;;;;;;;;5036786;28;20178;-72
2023/10/30 07:48:52;;;;;;;11.27;3.73;;;;;;;;;;5052217;28;20186;-72
2023/10/30 07:51:18;;;;;;;13.27;3.50;;;;;;;;;;5036776;28;20657;-72
2023/10/30 07:53:44;;;;;;;13.43;3.67;;;;;;;;;;5036277;28;20206;-73
2023/10/30 07:56:10;;;;;;;9.90;3.17;;;;;;;;;;5051177;28;20206;-72
2023/10/30 07:58:36;;;;;;;12.87;3.53;;;;;;;;;;5051083;28;20289;-72
2023/10/30 08:01:03;;;;;;;10.53;3.17;;;;;;;;;;5036672;28;20703;-74
2023/10/30 08:03:29;;;;;;;13.60;3.57;;;;;;;;;;5050991;28;20649;-72
2023/10/30 08:05:58;;;;;;;10.67;3.77;;;;;;;;;;5035954;28;20190;-73
2023/10/30 08:08:24;;;;;;;10.27;4.10;;;;;;;;;;5035975;28;20203;-72
2023/10/30 08:10:50;;;;;;;15.87;3.97;;;;;;;;;;5051236;28;20187;-73
2023/10/30 08:13:16;;;;;;;10.93;3.47;;;;;;;;;;5051312;28;20187;-72
2023/10/30 08:15:42;;;;;;;15.00;4.60;;;;;;;;;;5051225;28;20272;-73
2023/10/30 08:18:08;;;;;;;11.33;3.37;;;;;;;;;;5051475;28;20583;-73
2023/10/30 08:20:34;;;;;;;13.57;3.83;;;;;;;;;;5050529;28;20266;-73
2023/10/30 08:23:00;;;;;;;12.93;3.40;;;;;;;;;;5035680;28;20597;-73
2023/10/30 08:25:27;;;;;;;13.00;3.60;;;;;;;;;;5050803;28;20175;-73
2023/10/30 08:27:53;;;;;;;14.30;3.73;;;;;;;;;;5035287;28;20199;-73
2023/10/30 08:30:19;;;;;;;13.27;4.53;;;;;;;;;;5035672;28;20179;-72
2023/10/30 08:32:46;;;;;;;12.70;4.70;;;;;;;;;;5035542;28;20237;-72
2023/10/30 08:35:12;;;;;;;10.60;4.17;;;;;;;;;;5035572;28;20175;-73
2023/10/30 08:37:38;;;;;;;8.93;3.60;;;;;;;;;;5039492;28;20218;-74
2023/10/30 08:40:06;;;;;;;15.83;4.10;;;;;;;;;;5050250;28;20194;-73
2023/10/30 08:42:32;;;;;;;13.23;3.53;;;;;;;;;;5057655;22;20234;-66
2023/10/30 08:44:59;;;;;;;16.43;4.00;;;;;;;;;;5034172;28;20266;-70
2023/10/30 08:47:25;;;;;;;10.20;3.67;;;;;;;;;;5032910;28;20184;-70
2023/10/30 08:49:51;;;;;;;12.20;3.97;;;;;;;;;;5034111;28;20618;-68
2023/10/30 08:52:17;;;;;;;11.63;4.03;;;;;;;;;;5033834;28;20211;-67
2023/10/30 08:54:43;;;;;;;11.13;3.57;;;;;;;;;;5049137;28;20651;-66
2023/10/30 08:57:09;;;;;;;13.60;4.20;;;;;;;;;;5034198;28;20272;-68
2023/10/30 08:59:38;;;;;;;11.97;3.87;;;;;;;;;;5033819;28;20681;-67
2023/10/30 09:02:07;;;;;;;10.30;4.43;;;;;;;;;;5048923;28;20211;-67
2023/10/30 09:04:33;;;;;;;11.33;4.50;;;;;;;;;;5034187;28;20190;-67
2023/10/30 09:06:59;;;;;;;13.63;5.50;;;;;;;;;;5049024;28;20187;-67
2023/10/30 09:09:25;;;;;;;10.77;5.00;;;;;;;;;;5049043;28;20585;-67
2023/10/30 09:11:51;;;;;;;12.97;4.97;;;;;;;;;;5048930;28;20207;-67
2023/10/30 09:14:17;;;;;;;16.80;5.57;;;;;;;;;;5049052;28;20186;-67
2023/10/30 09:16:43;;;;;;;7.37;4.63;;;;;;;;;;5048885;28;20248;-67
2023/10/30 09:19:09;;;;;;;14.50;6.70;;;;;;;;;;5048772;28;20549;-67
2023/10/30 09:21:35;;;;;;;14.10;5.53;;;;;;;;;;5033282;28;20174;-67
2023/10/30 09:24:02;;;;;;;13.07;6.27;;;;;;;;;;5033545;28;20198;-67
2023/10/30 09:26:28;;;;;;;12.47;6.23;;;;;;;;;;5033466;28;20175;-67
2023/10/30 09:28:54;;;;;;;22.70;7.07;;;;;;;;;;5033631;28;20183;-67
2023/10/30 09:31:20;;;;;;;11.87;5.70;;;;;;;;;;5047887;28;20183;-67
2023/10/30 09:33:48;;;;;;;11.83;4.97;;;;;;;;;;5033202;28;20202;-67
2023/10/30 09:36:14;;;;;;;9.70;4.40;;;;;;;;;;5048496;28;20255;-67
2023/10/30 09:38:41;;;;;;;13.53;5.57;;;;;;;;;;5033117;28;20221;-67
2023/10/30 09:41:09;;;;;;;13.40;5.93;;;;;;;;;;5033229;28;20182;-67
2023/10/30 09:43:37;;;;;;;13.77;7.23;;;;;;;;;;5032944;28;20580;-67
2023/10/30 09:46:06;;;;;;;12.07;5.03;;;;;;;;;;5033061;28;20179;-67
2023/10/30 09:48:32;;;;;;;10.63;4.60;;;;;;;;;;5048470;28;20233;-67
2023/10/30 09:50:59;;;;;;;9.43;4.67;;;;;;;;;;5048295;28;20191;-67
2023/10/30 09:53:25;;;;;;;6.43;3.40;;;;;;;;;;5032925;28;20195;-67
2023/10/30 09:55:54;;;;;;;5.70;2.90;;;;;;;;;;5048269;28;20194;-67
2023/10/30 09:58:22;;;;;;;7.37;3.33;;;;;;;;;;5033489;28;20629;-67
2023/10/30 10:00:48;;;;;;;4.57;2.90;;;;;;;;;;5048200;28;20180;-67
2023/10/30 10:03:14;;;;;;;6.10;2.80;;;;;;;;;;5048184;28;20229;-68
2023/10/30 10:05:40;;;;;;;9.03;2.37;;;;;;;;;;5032782;28;20175;-67
2023/10/30 10:08:07;;;;;;;3.53;2.13;;;;;;;;;;5048180;28;20278;-67
2023/10/30 10:10:52;;;;;;;6.53;2.77;;;;;;;;;;5033070;28;20182;-67
2023/10/30 10:13:18;;;;;;;5.10;2.13;;;;;;;;;;5032833;28;20691;-67
2023/10/30 10:15:44;;;;;;;4.87;2.33;;;;;;;;;;5032951;28;20180;-68
2023/10/30 10:18:22;;;;;;;6.47;2.27;;;;;;;;;;5032873;28;20216;-67
2023/10/30 10:21:09;;;;;;;4.53;2.30;;;;;;;;;;5048142;28;20229;-68
2023/10/30 10:23:36;;;;;;;5.77;1.80;;;;;;;;;;5032771;28;20744;-67
2023/10/30 10:26:06;;;;;;;3.93;2.00;;;;;;;;;;5032682;28;20179;-67
2023/10/30 10:28:33;;;;;;;6.53;2.10;;;;;;;;;;5048058;28;20183;-68
2023/10/30 10:30:59;;;;;;;3.73;2.10;;;;;;;;;;5032558;28;20668;-67
2023/10/30 10:33:29;;;;;;;3.83;1.90;;;;;;;;;;5032860;28;20206;-67
2023/10/30 10:35:56;;;;;;;5.90;2.17;;;;;;;;;;5032659;28;20171;-67
2023/10/30 10:38:22;;;;;;;4.90;2.13;;;;;;;;;;5048053;28;20179;-68
2023/10/30 10:40:49;;;;;;;6.83;2.40;;;;;;;;;;5033165;28;20225;-69
2023/10/30 10:43:24;;;;;;;6.43;2.43;;;;;;;;;;5050381;28;20709;-68
2023/10/30 10:45:52;;;;;;;4.27;2.30;;;;;;;;;;5052713;28;20202;-68
2023/10/30 10:48:18;;;;;;;7.00;2.43;;;;;;;;;;5037357;28;20182;-68
2023/10/30 10:50:45;;;;;;;4.73;2.30;;;;;;;;;;5051658;28;20194;-68
2023/10/30 10:53:11;;;;;;;7.80;2.40;;;;;;;;;;5036160;28;20195;-68
2023/10/30 10:55:40;;;;;;;5.40;2.77;;;;;;;;;;5036267;28;20179;-68
2023/10/30 10:58:09;;;;;;;7.07;3.57;;;;;;;;;;5036375;28;20242;-68
2023/10/30 11:00:37;;;;;;;11.20;3.40;;;;;;;;;;5036003;28;20182;-68
2023/10/30 11:03:06;;;;;;;8.07;3.37;;;;;;;;;;5036166;28;20195;-68
2023/10/30 11:05:33;;;;;;;5.07;2.60;;;;;;;;;;5036280;28;20678;-68
2023/10/30 11:08:00;;;;;;;3.10;1.83;;;;;;;;;;5051447;28;20316;-68
2023/10/30 11:10:27;;;;;;;4.00;2.23;;;;;;;;;;5051414;28;20270;-68
2023/10/30 11:13:12;;;;;;;4.13;2.40;;;;;;;;;;5035873;28;20281;-68
2023/10/30 11:15:50;;;;;;;3.43;1.90;;;;;;;;;;5036101;28;20186;-68
2023/10/30 11:18:18;;;;;;;4.93;1.77;;;;;;;;;;5035824;28;20193;-69
2023/10/30 11:20:45;;;;;;;2.20;1.73;;;;;;;;;;5051083;28;20179;-68
2023/10/30 11:23:15;;;;;;;5.20;1.97;;;;;;;;;;5035701;28;20571;-68
2023/10/30 11:25:54;;;;;;;4.97;1.83;;;;;;;;;;5035701;28;20570;-68
2023/10/30 11:28:22;;;;;;;3.60;1.70;;;;;;;;;;5035626;28;20195;-67
2023/10/30 11:30:50;;;;;;;3.47;1.77;;;;;;;;;;5050824;28;20221;-68
2023/10/30 11:33:20;;;;;;;4.53;1.80;;;;;;;;;;5035407;28;20210;-68
2023/10/30 11:35:46;;;;;;;3.43;1.50;;;;;;;;;;5035437;28;20178;-67
2023/10/30 11:38:18;;;;;;;4.93;1.90;;;;;;;;;;5035728;28;20214;-68
2023/10/30 11:41:00;;;;;;;3.27;1.80;;;;;;;;;;5050819;28;20171;-67
2023/10/30 11:43:30;;;;;;;5.33;2.07;;;;;;;;;;5035608;28;20292;-68
2023/10/30 11:46:06;;;;;;;4.17;2.23;;;;;;;;;;5035362;28;20259;-65
2023/10/30 11:48:32;;;;;;;2.43;1.93;;;;;;;;;;5051035;28;20183;-67
2023/10/30 11:50:58;;;;;;;2.57;1.90;;;;;;;;;;5050672;28;20183;-68
2023/10/30 11:53:26;;;;;;;5.77;2.00;;;;;;;;;;5049938;28;20649;-67
2023/10/30 11:55:53;;;;;;;3.77;2.03;;;;;;;;;;5035658;28;20708;-67
2023/10/30 11:58:20;;;;;;;4.63;2.50;;;;;;;;;;5051037;28;20264;-67
2023/10/30 12:00:47;;;;;;;5.57;1.90;;;;;;;;;;5035774;28;20182;-67
2023/10/30 12:03:13;;;;;;;4.30;2.40;;;;;;;;;;5034915;28;20259;-67
2023/10/30 12:05:39;;;;;;;9.10;2.80;;;;;;;;;;5035098;28;20179;-67
2023/10/30 12:08:05;;;;;;;6.20;2.50;;;;;;;;;;5035004;28;20192;-67
2023/10/30 12:10:32;;;;;;;6.10;2.60;;;;;;;;;;5034932;28;20179;-66
2023/10/30 12:12:58;;;;;;;2.40;2.10;;;;;;;;;;5034665;28;20223;-65
2023/10/30 12:15:27;;;;;;;4.50;2.63;;;;;;;;;;5050645;28;20214;-66
2023/10/30 12:17:53;;;;;;;6.17;3.27;;;;;;;;;;5034689;28;20244;-67
2023/10/30 12:20:20;;;;;;;5.83;3.40;;;;;;;;;;5035030;28;20179;-66
2023/10/30 12:22:46;;;;;;;4.87;2.70;;;;;;;;;;5034620;28;20199;-65
2023/10/30 12:25:16;;;;;;;4.23;2.83;;;;;;;;;;5049895;28;20294;-65
2023/10/30 12:27:42;;;;;;;4.80;2.70;;;;;;;;;;5034793;28;20635;-65
2023/10/30 12:30:13;;;;;;;4.47;2.40;;;;;;;;;;5049825;28;20183;-66
2023/10/30 12:32:39;;;;;;;2.80;1.80;;;;;;;;;;5034461;28;20198;-66
2023/10/30 12:35:09;;;;;;;4.93;1.97;;;;;;;;;;5034538;28;20225;-66
2023/10/30 12:37:37;;;;;;;5.87;2.33;;;;;;;;;;5034597;28;20199;-66
2023/10/30 12:40:05;;;;;;;4.07;2.13;;;;;;;;;;5034762;28;20210;-66
2023/10/30 12:42:34;;;;;;;3.03;1.97;;;;;;;;;;5034193;28;20211;-67
2023/10/30 12:45:05;;;;;;;4.10;2.50;;;;;;;;;;5034204;28;20218;-68
2023/10/30 12:47:31;;;;;;;3.27;1.90;;;;;;;;;;5049730;28;20183;-66
2023/10/30 12:49:56;;;;;;;5.77;2.10;;;;;;;;;;5034160;28;20182;-66
2023/10/30 12:52:23;;;;;;;3.30;1.70;;;;;;;;;;5034327;28;20253;-66
2023/10/30 12:54:49;;;;;;;5.30;2.10;;;;;;;;;;5049859;28;20556;-67
2023/10/30 12:57:15;;;;;;;3.47;2.07;;;;;;;;;;5034116;28;20278;-67
2023/10/30 12:59:41;;;;;;;4.40;2.40;;;;;;;;;;5033973;28;20652;-67
2023/10/30 13:02:08;;;;;;;2.80;2.07;;;;;;;;;;5033927;28;20601;-67
2023/10/30 13:04:34;;;;;;;3.37;2.10;;;;;;;;;;5033887;28;20221;-67
2023/10/30 13:07:00;;;;;;;6.33;2.23;;;;;;;;;;5048179;28;20178;-67
2023/10/30 13:09:26;;;;;;;2.87;1.90;;;;;;;;;;5049144;28;20222;-67
2023/10/30 13:11:52;;;;;;;5.17;2.10;;;;;;;;;;5033646;28;20278;-67
2023/10/30 13:14:18;;;;;;;7.17;3.03;;;;;;;;;;5049057;28;20547;-67
2023/10/30 13:16:44;;;;;;;4.87;2.63;;;;;;;;;;5033872;28;20226;-67
2023/10/30 13:19:10;;;;;;;7.30;2.27;;;;;;;;;;5033704;28;20218;-67
2023/10/30 13:21:36;;;;;;;7.50;2.80;;;;;;;;;;5048857;28;20171;-67
2023/10/30 13:24:03;;;;;;;3.33;2.00;;;;;;;;;;5048985;28;20233;-67
2023/10/30 13:26:29;;;;;;;4.50;2.07;;;;;;;;;;5049044;28;20668;-67
2023/10/30 13:28:55;;;;;;;8.73;2.57;;;;;;;;;;5049047;28;20244;-67
2023/10/30 13:31:21;;;;;;;3.50;1.70;;;;;;;;;;5034292;28;20179;-67
2023/10/30 13:33:48;;;;;;;3.77;1.97;;;;;;;;;;5033297;28;20229;-67
2023/10/30 13:36:16;;;;;;;4.77;1.90;;;;;;;;;;5033285;28;20613;-67
2023/10/30 13:38:42;;;;;;;3.93;1.97;;;;;;;;;;5033422;28;20175;-67
2023/10/30 13:41:08;;;;;;;6.47;2.43;;;;;;;;;;5048647;28;20236;-67
2023/10/30 13:43:34;;;;;;;5.23;2.37;;;;;;;;;;5033196;28;20213;-67
2023/10/30 13:46:00;;;;;;;7.17;2.57;;;;;;;;;;5033232;28;20261;-67
2023/10/30 13:48:26;;;;;;;5.23;2.67;;;;;;;;;;5033164;28;20179;-66
2023/10/30 13:50:52;;;;;;;5.03;2.40;;;;;;;;;;5033366;28;20175;-68
2023/10/30 13:53:18;;;;;;;4.37;2.20;;;;;;;;;;5048458;28;20685;-67
2023/10/30 13:55:44;;;;;;;6.50;2.30;;;;;;;;;;5033030;28;20172;-67
2023/10/30 13:58:10;;;;;;;5.27;2.43;;;;;;;;;;5032952;28;20349;-67
2023/10/30 14:00:36;;;;;;;6.43;2.50;;;;;;;;;;5048302;28;20539;-67
2023/10/30 14:03:02;;;;;;;5.87;2.30;;;;;;;;;;5032845;28;20637;-67
2023/10/30 14:05:28;;;;;;;5.70;2.43;;;;;;;;;;5033208;28;20258;-67
2023/10/30 14:07:54;;;;;;;6.10;2.30;;;;;;;;;;5033028;28;20202;-67
2023/10/30 14:10:20;;;;;;;5.20;2.97;;;;;;;;;;5032996;28;20186;-67
2023/10/30 14:12:46;;;;;;;8.17;3.10;;;;;;;;;;5048186;28;20218;-68
2023/10/30 14:15:12;;;;;;;3.93;2.33;;;;;;;;;;5032908;28;20191;-67
2023/10/30 14:17:38;;;;;;;9.10;3.33;;;;;;;;;;5049772;28;20230;-67
2023/10/30 14:20:04;;;;;;;4.37;2.63;;;;;;;;;;5037086;28;20179;-68
2023/10/30 14:22:31;;;;;;;6.93;2.80;;;;;;;;;;5036929;28;20206;-67
2023/10/30 14:24:57;;;;;;;6.27;2.13;;;;;;;;;;5036882;28;20171;-67
2023/10/30 14:27:23;;;;;;;1.87;1.40;;;;;;;;;;5037150;28;20183;-67
2023/10/30 14:29:49;;;;;;;2.47;1.87;;;;;;;;;;5036829;28;20183;-67
2023/10/30 14:32:15;;;;;;;2.90;2.50;;;;;;;;;;5037065;28;20195;-67